Iron Mountain, MI

9:39 PM CST on December 27, 2014 (GMT -0600)
Menominee-Marinette Twin County | Change Station
CLOSE
Current Station
Airport
Location: Menominee,
Elevation: 627 ft
Nearby Weather Stations

Elev 627 ft 45.13 °N, 87.64 °W | Updated 4 minutes ago

Clear
Clear
30 °F
Feels Like 23 °F
N
8
Wind Variable Wind from WNW

Today
High -- | Low -- °F
--% Chance of Precip.
Yesterday
High -- | Low -- °F
Precip. -- in
7:32 AM 4:14 PM
Waxing Crescent, 43% visible
Pressure 30.00 in
Visibility 10.0 miles
Clouds Mostly Cloudy 3300 ft
Windchill 23 °F
Dew Point 21 °F
Humidity 69%
Rainfall 0.20 in
Snow Depth Not available.
UV 0 out of 12
Pollen .10 out of 12
Air Quality Not available.
Flu Activity Not available.
METAR KMNM 280335Z AUTO 30007KT 10SM BKN033 M01/M06 A3000 RMK AO1

More Conditions Fewer Conditions

Pressure 30.00 in
Visibility 10.0 miles
Clouds Mostly Cloudy 3300 ft
Windchill 23 °F
Dew Point 21 °F
Humidity 69%
Rainfall 0.20 in
Snow Depth Not available.
UV 0 out of 12
Pollen .10 out of 12
Air Quality Not available.
Flu Activity Not available.
METAR KMNM 280335Z AUTO 30007KT 10SM BKN033 M01/M06 A3000 RMK AO1

More Conditions Fewer Conditions

10-Day Weather Forecast

Almanac

Astronomy

Dec. 27, 2014 Rise Set
Actual Time
Civil Twilight
Nautical Twilight
Astronomical Twilight
Moon
Length of Visible Light
Length of Day
Tomorrow will be .
, % of the Moon is Illuminated

Today's Extremes

State Highs State Lows

Community

WunderPhotos

Upload Photos

1,781,180 photos uploaded!

WunderBlogs® & News

Nearby

Air Quality

  Air Quality AQ Index Pollutant
Not available.

Snow Depth

Station Depth Elevation

Earthquake Activity

City Distance Mag. Time & Date
Minimum magnitude displayed is 2.5.

Coastal Water Temperatures

Place Temperature

Nearby Weather Stations